Aérodrome :
LOGIN :

S'inscrire | Disclaimer

   EN    FR    IT 

 










Légende :    VFR   VFR Marginal   IFR   IFR Intensif   IFR Très Intensif
Visi : 
Plafond : 
>= 8 km
>= 3000ft
5 à 8 km
1000 à 3000 ft
1500m à 5 km
500 à 1000 ft
800 à 1500m
200 à 500 ft
< 800m
< 200 ft
Symboles :   Orages  Brouillard  Fortes neiges  Fortes précipitations  Vent > 20 kt
SIGMETs :   Divers  Orages  Givrage  Turbulence  Onde Orograph.  Cendres Volcan.






- Altitude de l'aérodrome : 288 ft
- Code IATA : BZZ


EGVN - RAF Brize Norton

DERNIER METAR :
  • 151850Z 26003KT 9999 FEW016 BKN050 13/10 Q1004 NOSIG RMK BLU BLU

METARs EXPIRÉS :
  • 151750Z 19002KT 9999 SCT037 SCT047 13/10 Q1004 TEMPO SCT022 RMK BLU TEMPO WHT
  • 151720Z 21002KT 9999 FEW028 SCT041 13/09 Q1004 NOSIG RMK BLU BLU
  • 151650Z 22004KT 9999 FEW028 14/09 Q1003 NOSIG RMK BLU BLU
  • 151620Z 23003KT 9999 FEW028 15/08 Q1003 NOSIG RMK BLU BLU

TAF TAF EGVN
Valide du 15 à 18h jusqu'au 16 à 18h UTC


151647Z 1518/1618 20005KT 9999 SCT025
PROB30
TEMPO 1518/1519 -SHRA SCT018
BECMG 1600/1603 17015KT BKN012
TEMPO 1601/1607 4000 RA SCT006 BKN012
BECMG 1606/1609 24010KT SCT035



MET'MAP, la Météo Aéronautique d'un coup d'oeil ! - Copyright ORBIFLY Décembre 2007 - Disclaimer

ORBIFLY MET'MAP TEAM :

Programmation & Développement : Alexandra Zaïnal
Conception & Développement : Baudouin d'Aumeries
Co-Programmation & Développement : Marc-Olivier Méhu
Soutien technique & logistique : Manuel Goepfert

Contact : metmap@orbifly.com




SOURCES & CREDITS :

   NOAA